createdAt,value
2018-05-21T00:00:08.997Z,3.92
2018-05-21T00:02:36.576Z,4.55
2018-05-21T00:05:04.150Z,3.97
2018-05-21T00:07:31.700Z,4.03
2018-05-21T00:09:59.374Z,4.30
2018-05-21T00:12:26.917Z,5.05
2018-05-21T00:14:54.459Z,4.30
2018-05-21T00:17:22.068Z,4.28
2018-05-21T00:19:49.670Z,4.62
2018-05-21T00:22:17.208Z,4.82
2018-05-21T00:24:44.771Z,5.25
2018-05-21T00:27:12.347Z,5.28
2018-05-21T00:29:39.959Z,6.12
2018-05-21T00:32:08.275Z,5.32
2018-05-21T00:34:35.815Z,4.03
2018-05-21T00:37:03.361Z,4.75
2018-05-21T00:39:31.664Z,4.30
2018-05-21T00:41:59.204Z,4.82
2018-05-21T00:44:27.507Z,5.18
2018-05-21T00:46:55.089Z,5.03
2018-05-21T00:49:22.632Z,3.85
2018-05-21T00:51:50.191Z,4.82
2018-05-21T00:54:17.781Z,4.53
2018-05-21T00:56:45.345Z,5.10
2018-05-21T00:59:12.926Z,4.90
2018-05-21T01:01:40.482Z,4.62
2018-05-21T01:04:08.050Z,4.53
2018-05-21T01:06:35.590Z,5.18
2018-05-21T01:09:03.175Z,4.60
2018-05-21T01:11:30.742Z,4.37
2018-05-21T01:13:58.282Z,5.10
2018-05-21T01:16:25.815Z,4.20
2018-05-21T01:18:53.412Z,4.60
2018-05-21T01:21:20.973Z,4.95
2018-05-21T01:23:48.514Z,4.70
2018-05-21T01:26:16.830Z,4.78
2018-05-21T01:28:44.366Z,4.20
2018-05-21T01:31:12.652Z,4.10
2018-05-21T01:33:40.969Z,4.30
2018-05-21T01:36:08.625Z,4.30
2018-05-21T01:38:36.158Z,4.47
2018-05-21T01:41:04.483Z,4.72
2018-05-21T01:43:32.005Z,4.37
2018-05-21T01:46:00.293Z,5.20
2018-05-21T01:48:27.850Z,4.90
2018-05-21T01:50:56.195Z,3.33
2018-05-21T01:53:23.825Z,4.50
2018-05-21T01:55:51.379Z,4.45
2018-05-21T01:58:18.936Z,3.47
2018-05-21T02:00:46.494Z,4.00
2018-05-21T02:03:14.819Z,3.70
2018-05-21T02:05:42.394Z,4.70
2018-05-21T02:08:09.944Z,4.12
2018-05-21T02:10:37.480Z,4.50
2018-05-21T02:13:05.035Z,4.50
2018-05-21T02:15:32.569Z,5.12
2018-05-21T02:18:00.139Z,5.05
2018-05-21T02:20:28.463Z,4.60
2018-05-21T02:22:56.000Z,4.90
2018-05-21T02:25:23.549Z,4.80
2018-05-21T02:27:51.109Z,4.75
2018-05-21T02:30:18.655Z,4.65
2018-05-21T02:32:46.236Z,5.05
2018-05-21T02:35:13.770Z,4.37
2018-05-21T02:37:41.315Z,4.45
2018-05-21T02:40:08.837Z,5.03
2018-05-21T02:42:37.166Z,5.60
2018-05-21T02:45:04.722Z,5.68
2018-05-21T02:47:32.287Z,5.55
2018-05-21T02:49:59.849Z,5.55
2018-05-21T02:52:27.397Z,4.30
2018-05-21T02:54:54.946Z,5.45
2018-05-21T02:57:23.258Z,4.90
2018-05-21T02:59:50.846Z,4.32
2018-05-21T03:02:18.386Z,4.85
2018-05-21T03:04:45.905Z,4.20
2018-05-21T03:07:13.436Z,4.68
2018-05-21T03:09:40.973Z,3.90
2018-05-21T03:12:08.506Z,5.07
2018-05-21T03:14:36.834Z,5.00
2018-05-21T03:17:04.386Z,4.90
2018-05-21T03:19:31.917Z,4.80
2018-05-21T03:22:00.213Z,4.35
2018-05-21T03:24:27.732Z,5.10
2018-05-21T03:26:55.331Z,4.87
2018-05-21T03:29:23.680Z,4.80
2018-05-21T03:31:51.233Z,4.37
2018-05-21T03:34:18.767Z,4.75
2018-05-21T03:36:46.362Z,4.55
2018-05-21T03:39:13.894Z,4.40
2018-05-21T03:41:41.421Z,3.45
2018-05-21T03:44:09.726Z,4.60
2018-05-21T03:46:37.336Z,4.60
2018-05-21T03:49:04.878Z,4.37
2018-05-21T03:51:32.408Z,4.78
2018-05-21T03:54:00.786Z,4.60
2018-05-21T03:56:29.086Z,4.95
2018-05-21T03:59:08.529Z,4.35
2018-05-21T04:01:47.753Z,4.50
2018-05-21T04:04:15.276Z,4.28
2018-05-21T04:06:42.839Z,4.50
2018-05-21T04:09:10.453Z,4.65
2018-05-21T04:11:37.991Z,4.93
2018-05-21T04:14:06.291Z,4.72
2018-05-21T04:16:33.863Z,4.25
2018-05-21T04:19:01.396Z,4.85
2018-05-21T04:21:29.714Z,3.97
2018-05-21T04:23:57.260Z,4.90
2018-05-21T04:26:24.814Z,4.40
2018-05-21T04:28:53.120Z,4.30
2018-05-21T04:31:20.654Z,4.85
2018-05-21T04:33:48.210Z,4.70
2018-05-21T04:36:16.568Z,4.85
2018-05-21T04:38:44.097Z,4.47
2018-05-21T04:41:11.638Z,5.22
2018-05-21T04:43:39.192Z,5.05
2018-05-21T04:46:07.500Z,4.22
2018-05-21T04:48:35.025Z,4.03
2018-05-21T04:51:03.354Z,5.72
2018-05-21T04:53:30.920Z,5.12
2018-05-21T04:55:58.469Z,4.80
2018-05-21T04:58:26.023Z,5.55
2018-05-21T05:00:53.599Z,6.45
2018-05-21T05:03:21.137Z,5.93
2018-05-21T05:05:49.459Z,5.40
2018-05-21T05:08:17.003Z,5.40
2018-05-21T05:10:44.571Z,4.62
2018-05-21T05:13:12.108Z,4.93
2018-05-21T05:15:40.407Z,5.22
2018-05-21T05:18:07.944Z,5.18
2018-05-21T05:20:36.267Z,5.07
2018-05-21T05:23:03.826Z,4.95
2018-05-21T05:25:31.412Z,5.07
2018-05-21T05:27:58.977Z,5.68
2018-05-21T05:30:26.580Z,5.05
2018-05-21T05:32:54.915Z,5.15
2018-05-21T05:35:22.474Z,5.18
2018-05-21T05:37:50.018Z,5.20
2018-05-21T05:40:17.590Z,4.75
2018-05-21T05:42:45.147Z,5.20
2018-05-21T05:45:12.698Z,5.00
2018-05-21T05:47:40.995Z,5.50
2018-05-21T05:50:08.550Z,4.68
2018-05-21T05:52:36.111Z,4.93
2018-05-21T05:55:03.654Z,4.47
2018-05-21T05:57:31.230Z,4.40
2018-05-21T05:59:59.525Z,5.70
2018-05-21T06:02:27.086Z,4.70
2018-05-21T06:04:54.623Z,4.80
2018-05-21T06:07:22.194Z,4.93
2018-05-21T06:09:50.505Z,3.72
2018-05-21T06:12:18.078Z,5.30
2018-05-21T06:14:45.624Z,4.20
2018-05-21T06:17:13.163Z,4.57
2018-05-21T06:19:40.685Z,4.10
2018-05-21T06:22:08.217Z,4.30
2018-05-21T06:24:35.774Z,4.15
2018-05-21T06:27:03.463Z,4.37
2018-05-21T06:29:31.023Z,4.47
2018-05-21T06:31:58.549Z,3.35
2018-05-21T06:34:26.191Z,3.72
2018-05-21T06:36:54.398Z,3.62
2018-05-21T06:39:24.102Z,3.50
2018-05-21T06:41:52.128Z,4.03
2018-05-21T06:44:19.688Z,3.40
2018-05-21T06:46:50.311Z,3.90
2018-05-21T06:49:17.843Z,3.60
2018-05-21T06:51:45.403Z,3.50
2018-05-21T06:54:12.965Z,3.70
2018-05-21T06:56:40.553Z,3.60
2018-05-21T06:59:08.135Z,3.80
2018-05-21T07:01:35.697Z,4.10
2018-05-21T07:04:03.229Z,3.17
2018-05-21T07:06:30.764Z,3.55
2018-05-21T07:08:58.298Z,3.97
2018-05-21T07:11:25.859Z,3.87
2018-05-21T07:13:53.429Z,3.33
2018-05-21T07:16:20.983Z,3.37
2018-05-21T07:18:48.519Z,3.83
2018-05-21T07:21:16.861Z,4.97
2018-05-21T07:23:44.418Z,3.70
2018-05-21T07:26:11.978Z,4.30
2018-05-21T07:28:39.529Z,6.05
2018-05-21T07:31:07.057Z,4.20
2018-05-21T07:33:35.357Z,3.85
2018-05-21T07:36:02.918Z,4.37
2018-05-21T07:38:30.455Z,4.03
2018-05-21T07:40:58.020Z,3.85
2018-05-21T07:43:25.554Z,3.45
2018-05-21T07:45:53.076Z,4.00
2018-05-21T07:48:20.615Z,4.35
2018-05-21T07:50:48.923Z,4.05
2018-05-21T07:53:16.914Z,3.85
2018-05-21T07:55:44.576Z,3.00
2018-05-21T07:58:12.159Z,3.15
2018-05-21T08:00:39.722Z,3.75
2018-05-21T08:03:07.294Z,3.40
2018-05-21T08:05:45.496Z,3.72
2018-05-21T08:08:13.075Z,3.08
2018-05-21T08:10:41.400Z,3.40
2018-05-21T08:13:09.023Z,3.80
2018-05-21T08:15:36.589Z,3.30
2018-05-21T08:18:04.174Z,3.58
2018-05-21T08:20:32.485Z,3.10
2018-05-21T08:23:00.022Z,3.47
2018-05-21T08:25:28.351Z,3.00
2018-05-21T08:27:56.063Z,3.12
2018-05-21T08:30:23.601Z,2.70
2018-05-21T08:32:52.734Z,3.05
2018-05-21T08:35:21.047Z,3.20
2018-05-21T08:37:48.625Z,3.47
2018-05-21T08:40:16.324Z,2.45
2018-05-21T08:42:44.815Z,2.80
2018-05-21T08:45:12.410Z,3.10
2018-05-21T08:47:40.765Z,3.42
2018-05-21T08:50:08.367Z,3.62
2018-05-21T08:52:35.950Z,3.75
2018-05-21T08:55:03.578Z,3.50
2018-05-21T08:57:31.113Z,3.33
2018-05-21T08:59:58.677Z,3.97
2018-05-21T09:02:26.272Z,3.12
2018-05-21T09:04:54.581Z,3.28
2018-05-21T09:07:22.123Z,3.40
2018-05-21T09:09:50.592Z,3.28
2018-05-21T09:12:19.016Z,3.58
2018-05-21T09:14:46.553Z,3.50
2018-05-21T09:17:14.864Z,4.12
2018-05-21T09:19:43.687Z,3.58
2018-05-21T09:22:11.326Z,3.37
2018-05-21T09:24:38.854Z,3.72
2018-05-21T09:27:07.213Z,3.40
2018-05-21T09:29:34.778Z,3.40
2018-05-21T09:32:02.316Z,3.30
2018-05-21T09:34:29.840Z,3.42
2018-05-21T09:36:57.386Z,4.03
2018-05-21T09:39:25.705Z,3.22
2018-05-21T09:41:53.256Z,4.12
2018-05-21T09:44:20.829Z,4.00
2018-05-21T09:46:48.643Z,3.55
2018-05-21T09:49:16.177Z,3.92
2018-05-21T09:51:43.726Z,3.33
2018-05-21T09:54:11.294Z,4.37
2018-05-21T09:56:38.843Z,3.40
2018-05-21T09:59:06.405Z,2.53
2018-05-21T10:01:33.953Z,3.67
2018-05-21T10:04:02.258Z,3.15
2018-05-21T10:06:29.802Z,3.30
2018-05-21T10:08:58.124Z,3.78
2018-05-21T10:11:25.687Z,3.22
2018-05-21T10:13:53.259Z,2.95
2018-05-21T10:16:20.810Z,3.00
2018-05-21T10:18:48.361Z,3.25
2018-05-21T10:21:15.922Z,2.80
2018-05-21T10:23:43.516Z,2.42
2018-05-21T10:26:11.185Z,2.78
2018-05-21T10:28:38.656Z,2.62
2018-05-21T10:31:07.411Z,2.70
2018-05-21T10:33:35.157Z,2.90
2018-05-21T10:36:03.494Z,2.53
2018-05-21T10:38:31.115Z,3.30
2018-05-21T10:40:58.681Z,2.75
2018-05-21T10:43:26.257Z,2.45
2018-05-21T10:45:53.838Z,2.70
2018-05-21T10:48:21.420Z,2.85
2018-05-21T10:50:48.966Z,2.87
2018-05-21T10:53:16.526Z,3.08
2018-05-21T10:55:44.088Z,2.80
2018-05-21T10:58:11.630Z,2.62
2018-05-21T11:00:39.247Z,2.70
2018-05-21T11:03:07.572Z,2.83
2018-05-21T11:05:35.527Z,3.25
2018-05-21T11:08:04.121Z,3.00
2018-05-21T11:10:31.682Z,2.80
2018-05-21T11:13:00.027Z,3.12
2018-05-21T11:15:27.575Z,3.22
2018-05-21T11:17:55.120Z,3.58
2018-05-21T11:20:22.693Z,3.15
2018-05-21T11:22:50.259Z,3.15
2018-05-21T11:25:17.827Z,3.10
2018-05-21T11:27:45.361Z,2.78
2018-05-21T11:30:12.911Z,2.70
2018-05-21T11:32:41.323Z,3.20
2018-05-21T11:35:08.895Z,3.12
2018-05-21T11:37:36.511Z,3.37
2018-05-21T11:40:04.051Z,3.17
2018-05-21T11:42:31.594Z,3.33
2018-05-21T11:44:59.132Z,3.47
2018-05-21T11:47:26.700Z,3.35
2018-05-21T11:49:54.267Z,3.03
2018-05-21T11:52:21.956Z,3.67
2018-05-21T11:54:49.503Z,3.62
2018-05-21T11:57:17.033Z,3.03
2018-05-21T11:59:45.338Z,3.00
2018-05-21T12:02:12.888Z,2.95
2018-05-21T12:04:41.222Z,3.10
2018-05-21T12:07:08.786Z,2.78
2018-05-21T12:09:36.330Z,2.92
2018-05-21T12:12:05.241Z,3.37
2018-05-21T12:14:33.613Z,2.70
2018-05-21T12:17:01.182Z,2.70
2018-05-21T12:19:28.730Z,2.55
2018-05-21T12:21:56.275Z,3.10
2018-05-21T12:24:23.819Z,3.10
2018-05-21T12:26:51.376Z,2.60
2018-05-21T12:29:18.913Z,3.60
2018-05-21T12:31:46.469Z,2.90
2018-05-21T12:34:14.015Z,2.70
2018-05-21T12:36:41.574Z,2.83
2018-05-21T12:39:09.142Z,2.72
2018-05-21T12:41:36.714Z,2.83
2018-05-21T12:44:04.261Z,3.22
2018-05-21T12:46:31.814Z,2.78
2018-05-21T12:49:00.118Z,3.30
2018-05-21T12:51:27.690Z,2.58
2018-05-21T12:53:55.338Z,2.80
2018-05-21T12:56:22.910Z,2.62
2018-05-21T12:58:50.508Z,2.42
2018-05-21T13:01:18.150Z,2.60
2018-05-21T13:03:45.719Z,3.10
2018-05-21T13:06:13.298Z,2.60
2018-05-21T13:08:40.847Z,2.33
2018-05-21T13:11:08.386Z,2.40
2018-05-21T13:13:35.934Z,2.80
2018-05-21T13:16:03.526Z,2.67
2018-05-21T13:18:31.072Z,2.70
2018-05-21T13:20:58.642Z,2.20
2018-05-21T13:23:26.203Z,2.28
2018-05-21T13:25:53.815Z,2.70
2018-05-21T13:28:21.356Z,2.70
2018-05-21T13:30:48.902Z,2.22
2018-05-21T13:33:16.472Z,2.75
2018-05-21T13:35:44.037Z,2.50
2018-05-21T13:38:11.616Z,2.65
2018-05-21T13:40:39.241Z,2.42
2018-05-21T13:43:07.659Z,2.40
2018-05-21T13:45:35.178Z,2.40
2018-05-21T13:48:03.514Z,2.00
2018-05-21T13:50:31.085Z,2.25
2018-05-21T13:52:58.634Z,2.40
2018-05-21T13:55:26.174Z,1.95
2018-05-21T13:57:54.473Z,2.20
2018-05-21T14:00:22.092Z,2.08
2018-05-21T14:02:49.686Z,2.35
2018-05-21T14:05:17.375Z,2.28
2018-05-21T14:07:44.947Z,2.03
2018-05-21T14:10:12.518Z,2.12
2018-05-21T14:12:40.173Z,2.30
2018-05-21T14:15:08.440Z,2.55
2018-05-21T14:17:35.971Z,1.95
2018-05-21T14:20:04.279Z,2.40
2018-05-21T14:22:31.851Z,2.20
2018-05-21T14:24:59.425Z,2.00
2018-05-21T14:27:26.957Z,2.10
2018-05-21T14:29:55.261Z,2.80
2018-05-21T14:32:22.833Z,2.50
2018-05-21T14:34:50.384Z,2.45
2018-05-21T14:37:17.955Z,2.47
2018-05-21T14:39:45.498Z,2.20
2018-05-21T14:42:13.817Z,2.37
2018-05-21T14:44:41.362Z,2.00
2018-05-21T14:47:08.923Z,2.37
2018-05-21T14:49:36.490Z,1.95
2018-05-21T14:52:04.078Z,2.08
2018-05-21T14:54:31.622Z,2.53
2018-05-21T14:56:59.179Z,1.87
2018-05-21T14:59:26.717Z,2.30
2018-05-21T15:01:55.094Z,2.50
2018-05-21T15:04:22.642Z,2.72
2018-05-21T15:06:50.196Z,2.75
2018-05-21T15:09:17.739Z,2.55
2018-05-21T15:11:45.338Z,2.60
2018-05-21T15:14:12.902Z,2.90
2018-05-21T15:16:40.441Z,2.58
2018-05-21T15:19:07.973Z,2.28
2018-05-21T15:21:35.588Z,2.28
2018-05-21T15:24:03.160Z,3.08
2018-05-21T15:29:04.597Z,3.15
2018-05-21T15:31:32.142Z,2.85
2018-05-21T15:33:59.678Z,2.70
2018-05-21T15:36:27.992Z,2.75
2018-05-21T15:38:55.563Z,2.67
2018-05-21T15:41:23.092Z,2.45
2018-05-21T15:43:51.395Z,2.22
2018-05-21T15:46:18.931Z,2.53
2018-05-21T15:48:47.224Z,2.35
2018-05-21T15:51:14.816Z,2.08
2018-05-21T15:53:42.359Z,2.75
2018-05-21T15:56:09.888Z,2.75
2018-05-21T15:58:37.419Z,2.70
2018-05-21T16:01:05.042Z,2.80
2018-05-21T16:03:33.386Z,2.65
2018-05-21T16:06:00.942Z,2.25
2018-05-21T16:08:28.483Z,2.15
2018-05-21T16:10:56.018Z,2.72
2018-05-21T16:13:23.586Z,2.30
2018-05-21T16:15:51.148Z,2.70
2018-05-21T16:18:19.441Z,3.05
2018-05-21T16:20:47.003Z,2.80
2018-05-21T16:23:14.616Z,2.50
2018-05-21T16:25:42.122Z,2.70
2018-05-21T16:28:10.437Z,2.40
2018-05-21T16:30:37.999Z,2.30
2018-05-21T16:33:05.534Z,2.10
2018-05-21T16:35:33.130Z,2.58
2018-05-21T16:38:01.423Z,3.17
2018-05-21T16:40:29.031Z,3.25
2018-05-21T16:42:57.323Z,2.45
2018-05-21T16:45:25.691Z,2.60
2018-05-21T16:47:54.226Z,2.60
2018-05-21T16:50:22.614Z,2.60
2018-05-21T16:52:50.321Z,2.50
2018-05-21T16:55:17.935Z,2.30
2018-05-21T16:57:45.550Z,2.30
2018-05-21T17:00:14.266Z,2.42
2018-05-21T17:02:41.927Z,2.40
2018-05-21T17:05:10.443Z,2.60
2018-05-21T17:07:37.973Z,2.08
2018-05-21T17:10:06.299Z,2.42
2018-05-21T17:12:33.920Z,2.90
2018-05-21T17:15:02.381Z,2.37
2018-05-21T17:17:30.254Z,2.60
2018-05-21T17:19:58.086Z,2.37
2018-05-21T17:22:25.647Z,2.53
2018-05-21T17:24:53.211Z,2.20
2018-05-21T17:27:20.764Z,2.75
2018-05-21T17:29:48.348Z,2.55
2018-05-21T17:32:16.886Z,2.30
2018-05-21T17:34:45.194Z,2.87
2018-05-21T17:37:12.825Z,2.78
2018-05-21T17:39:40.385Z,2.45
2018-05-21T17:42:07.996Z,3.00
2018-05-21T17:44:35.562Z,2.33
2018-05-21T17:47:03.125Z,2.80
2018-05-21T17:49:30.677Z,2.50
2018-05-21T17:51:58.221Z,2.10
2018-05-21T17:54:26.522Z,2.45
2018-05-21T17:56:54.126Z,2.20
2018-05-21T17:59:21.765Z,2.60
2018-05-21T18:01:49.338Z,2.53
2018-05-21T18:04:16.938Z,2.30
2018-05-21T18:06:44.550Z,2.80
2018-05-21T18:09:12.087Z,2.10
2018-05-21T18:11:50.783Z,2.70
2018-05-21T18:14:18.446Z,2.30
2018-05-21T18:16:46.084Z,2.60
2018-05-21T18:19:13.662Z,2.50
2018-05-21T18:21:43.873Z,2.65
2018-05-21T18:24:11.409Z,2.20
2018-05-21T18:26:38.966Z,2.97
2018-05-21T18:29:06.572Z,2.80
2018-05-21T18:31:34.822Z,2.85
2018-05-21T18:34:02.377Z,2.80
2018-05-21T18:36:30.758Z,2.45
2018-05-21T18:38:58.312Z,2.42
2018-05-21T18:41:26.703Z,3.00
2018-05-21T18:43:54.269Z,2.50
2018-05-21T18:46:22.581Z,2.15
2018-05-21T18:48:50.147Z,2.40
2018-05-21T18:51:17.720Z,3.12
2018-05-21T18:53:45.293Z,3.08
2018-05-21T18:56:12.840Z,3.12
2018-05-21T18:58:40.366Z,3.00
2018-05-21T19:01:08.672Z,2.70
2018-05-21T19:03:36.253Z,2.50
2018-05-21T19:06:03.869Z,2.40
2018-05-21T19:08:32.791Z,2.92
2018-05-21T19:11:00.754Z,2.95
2018-05-21T19:13:28.565Z,2.70
2018-05-21T19:15:56.214Z,3.50
2018-05-21T19:18:23.774Z,3.15
2018-05-21T19:20:51.375Z,3.45
2018-05-21T19:23:18.976Z,11.12
2018-05-21T19:25:46.881Z,15.20
2018-05-21T19:28:14.450Z,9.88
2018-05-21T19:30:41.999Z,8.18
2018-05-21T19:33:09.575Z,5.20
2018-05-21T19:35:37.120Z,3.95
2018-05-21T19:38:04.724Z,3.65
2018-05-21T19:40:32.293Z,3.75
2018-05-21T19:42:59.873Z,3.87
2018-05-21T19:45:27.420Z,3.60
2018-05-21T19:47:55.046Z,3.08
2018-05-21T19:50:22.655Z,3.53
2018-05-21T19:52:50.185Z,3.42
2018-05-21T19:55:17.732Z,4.07
2018-05-21T19:57:45.269Z,2.87
2018-05-21T20:00:12.806Z,3.60
2018-05-21T20:02:40.342Z,3.17
2018-05-21T20:05:07.928Z,3.70
2018-05-21T20:07:35.521Z,4.05
2018-05-21T20:10:03.598Z,2.83
2018-05-21T20:12:31.187Z,3.90
2018-05-21T20:14:59.491Z,3.70
2018-05-21T20:17:27.079Z,3.92
2018-05-21T20:19:54.623Z,3.28
2018-05-21T20:22:22.153Z,4.25
2018-05-21T20:24:50.474Z,3.67
2018-05-21T20:27:18.044Z,3.80
2018-05-21T20:29:45.616Z,3.78
2018-05-21T20:32:13.164Z,3.67
2018-05-21T20:34:40.744Z,3.90
2018-05-21T20:37:08.481Z,4.15
2018-05-21T20:39:36.785Z,3.28
2018-05-21T20:42:04.323Z,3.28
2018-05-21T20:44:31.882Z,4.00
2018-05-21T20:46:59.494Z,4.10
2018-05-21T20:49:27.042Z,3.80
2018-05-21T20:51:54.614Z,3.22
2018-05-21T20:54:22.136Z,3.10
2018-05-21T20:56:49.668Z,4.30
2018-05-21T20:59:18.007Z,3.75
2018-05-21T21:01:45.719Z,4.12
2018-05-21T21:04:13.282Z,3.12
2018-05-21T21:06:40.898Z,3.78
2018-05-21T21:09:08.462Z,3.10
2018-05-21T21:11:36.003Z,3.42
2018-05-21T21:14:03.610Z,3.50
2018-05-21T21:16:31.165Z,3.33
2018-05-21T21:18:58.739Z,4.03
2018-05-21T21:21:26.298Z,3.70
2018-05-21T21:23:53.838Z,3.42
2018-05-21T21:26:21.375Z,4.47
2018-05-21T21:28:49.709Z,4.35
2018-05-21T21:31:17.241Z,4.40
2018-05-21T21:33:44.784Z,4.40
2018-05-21T21:36:13.081Z,5.07
2018-05-21T21:38:40.633Z,3.72
2018-05-21T21:41:08.924Z,3.80
2018-05-21T21:43:37.224Z,5.10
2018-05-21T21:46:04.749Z,3.55
2018-05-21T21:48:32.296Z,4.18
2018-05-21T21:50:59.850Z,4.75
2018-05-21T21:53:27.401Z,3.55
2018-05-21T21:55:54.966Z,4.37
2018-05-21T21:58:22.533Z,3.60
2018-05-21T22:00:50.093Z,4.70
2018-05-21T22:03:17.630Z,4.53
2018-05-21T22:05:45.196Z,4.12
2018-05-21T22:08:12.767Z,4.43
2018-05-21T22:10:40.321Z,4.60
2018-05-21T22:13:07.876Z,4.40
2018-05-21T22:15:35.420Z,4.72
2018-05-21T22:18:03.768Z,4.03
2018-05-21T22:20:31.326Z,4.62
2018-05-21T22:22:58.868Z,4.20
2018-05-21T22:25:26.438Z,4.97
2018-05-21T22:27:53.999Z,4.50
2018-05-21T22:30:21.539Z,3.90
2018-05-21T22:32:49.866Z,4.07
2018-05-21T22:35:17.406Z,4.68
2018-05-21T22:37:44.966Z,4.00
2018-05-21T22:40:12.535Z,4.55
2018-05-21T22:42:40.538Z,4.47
2018-05-21T22:45:08.081Z,4.28
2018-05-21T22:47:35.609Z,4.15
2018-05-21T22:50:03.949Z,4.47
2018-05-21T22:52:31.478Z,4.60
2018-05-21T22:54:59.019Z,4.78
2018-05-21T22:57:27.387Z,4.75
2018-05-21T22:59:55.702Z,4.40
2018-05-21T23:02:23.237Z,4.00
2018-05-21T23:04:51.541Z,4.65
2018-05-21T23:07:19.105Z,4.37
2018-05-21T23:09:46.655Z,4.45
2018-05-21T23:12:15.021Z,4.78
2018-05-21T23:14:43.318Z,4.55
2018-05-21T23:17:11.629Z,4.03
2018-05-21T23:19:39.156Z,4.20
2018-05-21T23:22:06.694Z,4.05
2018-05-21T23:24:34.254Z,4.85
2018-05-21T23:27:01.781Z,4.80
2018-05-21T23:29:29.337Z,5.60
2018-05-21T23:31:56.884Z,5.30
2018-05-21T23:34:25.199Z,5.47
2018-05-21T23:36:52.722Z,5.68
2018-05-21T23:39:21.044Z,4.47
2018-05-21T23:41:48.617Z,5.05
2018-05-21T23:44:16.162Z,5.65
2018-05-21T23:46:43.697Z,5.05
2018-05-21T23:49:12.008Z,5.90
2018-05-21T23:51:39.571Z,4.00
2018-05-21T23:54:07.134Z,5.80
2018-05-21T23:56:34.674Z,5.05
2018-05-21T23:59:02.971Z,4.75
